Time;durP1;ratioP1;P1;durP2;ratioP2;P2;SDS_P1;SDS_P2;PMS_P1;PMS_P2;Temp;Humidity;BMP_temperature;BMP_pressure;BME280_temperature;BME280_humidity;BME280_pressure;Samples;Min_cycle;Max_cycle;Signal;HPM_P1;HPM_P2
2023/09/17 00:00:45;;;;;;;61.35;38.83;;;;;;;;;;4933200;29;20375;-86
2023/09/17 00:03:13;;;;;;;58.60;35.33;;;;;;;;;;4948325;29;20047;-87
2023/09/17 00:05:42;;;;;;;67.65;38.88;;;;;;;;;;4950866;29;20048;-87
2023/09/17 00:08:13;;;;;;;58.55;34.65;;;;;;;;;;4963239;29;20063;-88
2023/09/17 00:10:54;;;;;;;62.67;36.63;;;;;;;;;;4982577;28;20035;-88
2023/09/17 00:13:38;;;;;;;66.22;39.72;;;;;;;;;;4953215;29;20042;-86
2023/09/17 00:16:05;;;;;;;67.60;41.10;;;;;;;;;;4953053;29;20050;-87
2023/09/17 00:18:37;;;;;;;68.82;38.08;;;;;;;;;;4968200;29;20051;-87
2023/09/17 00:21:06;;;;;;;63.20;36.83;;;;;;;;;;4949329;28;20146;-86
2023/09/17 00:23:35;;;;;;;74.25;43.35;;;;;;;;;;4967057;29;20047;-87
2023/09/17 00:26:06;;;;;;;80.28;43.65;;;;;;;;;;4952394;29;20066;-88
2023/09/17 00:28:36;;;;;;;74.50;42.30;;;;;;;;;;4951683;29;20204;-86
2023/09/17 00:31:06;;;;;;;73.05;43.22;;;;;;;;;;4949911;29;20062;-86
2023/09/17 00:33:34;;;;;;;72.60;39.63;;;;;;;;;;4950282;28;20051;-88
2023/09/17 00:36:06;;;;;;;66.13;39.85;;;;;;;;;;4950634;29;20051;-87
2023/09/17 00:38:40;;;;;;;76.00;41.80;;;;;;;;;;4949372;29;20070;-88
2023/09/17 00:41:08;;;;;;;73.03;40.60;;;;;;;;;;4950360;29;20057;-87
2023/09/17 00:43:38;;;;;;;79.68;45.72;;;;;;;;;;4951501;29;20051;-88
2023/09/17 00:46:06;;;;;;;76.28;43.15;;;;;;;;;;4952120;29;20051;-86
2023/09/17 00:48:37;;;;;;;65.88;40.95;;;;;;;;;;4951617;29;20136;-87
2023/09/17 00:51:06;;;;;;;80.93;43.80;;;;;;;;;;4951114;29;20398;-88
2023/09/17 00:53:40;;;;;;;75.75;43.00;;;;;;;;;;4952536;28;20051;-87
2023/09/17 00:56:08;;;;;;;68.90;39.25;;;;;;;;;;4964779;29;20058;-88
2023/09/17 00:58:36;;;;;;;77.95;40.90;;;;;;;;;;4950212;29;20055;-87
2023/09/17 01:01:07;;;;;;;73.75;38.63;;;;;;;;;;4952101;29;20090;-88
2023/09/17 01:03:36;;;;;;;59.38;37.78;;;;;;;;;;4948055;29;20055;-87
2023/09/17 01:06:04;;;;;;;68.88;39.50;;;;;;;;;;4948237;29;20088;-86
2023/09/17 01:08:32;;;;;;;64.50;32.92;;;;;;;;;;4948998;29;20054;-87
2023/09/17 01:11:02;;;;;;;71.72;41.47;;;;;;;;;;4958758;29;20035;-87
2023/09/17 01:13:47;;;;;;;81.40;43.97;;;;;;;;;;4957382;29;20054;-89
2023/09/17 01:16:16;;;;;;;83.40;46.10;;;;;;;;;;4958252;28;20039;-86
2023/09/17 01:18:47;;;;;;;85.15;50.97;;;;;;;;;;4958793;29;20111;-88
2023/09/17 01:21:41;;;;;;;89.97;52.35;;;;;;;;;;4958558;29;20051;-87
2023/09/17 01:24:28;;;;;;;91.80;50.65;;;;;;;;;;4951234;29;20057;-87
2023/09/17 01:27:03;;;;;;;93.82;50.30;;;;;;;;;;4950139;29;20078;-88
2023/09/17 01:29:32;;;;;;;107.18;51.92;;;;;;;;;;4950696;29;20071;-87
2023/09/17 01:31:59;;;;;;;91.60;50.10;;;;;;;;;;4950840;29;20055;-87
2023/09/17 01:34:27;;;;;;;96.53;52.15;;;;;;;;;;4950291;29;20051;-88
2023/09/17 01:36:59;;;;;;;90.10;51.20;;;;;;;;;;4950886;29;20061;-87
2023/09/17 01:39:29;;;;;;;86.25;51.47;;;;;;;;;;4950317;29;20051;-87
2023/09/17 01:41:58;;;;;;;94.85;52.08;;;;;;;;;;4950273;29;20073;-87
2023/09/17 01:44:26;;;;;;;89.45;51.70;;;;;;;;;;4949584;29;20318;-87
2023/09/17 01:47:00;;;;;;;86.60;50.05;;;;;;;;;;4948446;29;20106;-86
2023/09/17 01:49:28;;;;;;;90.43;48.35;;;;;;;;;;4948733;29;20182;-87
2023/09/17 01:51:56;;;;;;;96.78;53.83;;;;;;;;;;4948135;29;20134;-88
2023/09/17 01:54:23;;;;;;;93.68;51.03;;;;;;;;;;4949913;29;20059;-87
2023/09/17 01:56:52;;;;;;;89.68;52.63;;;;;;;;;;4949700;29;20140;-87
2023/09/17 01:59:26;;;;;;;88.30;51.17;;;;;;;;;;4951013;29;20225;-87
2023/09/17 02:02:21;;;;;;;86.82;46.55;;;;;;;;;;4949841;29;20133;-87
2023/09/17 02:04:49;;;;;;;77.70;46.38;;;;;;;;;;4949624;29;20118;-87
2023/09/17 02:07:17;;;;;;;81.93;47.15;;;;;;;;;;4947376;29;20055;-88
2023/09/17 02:09:44;;;;;;;89.45;50.58;;;;;;;;;;4950915;29;20055;-87
2023/09/17 02:12:14;;;;;;;81.75;47.47;;;;;;;;;;4950173;29;20115;-88
2023/09/17 02:14:43;;;;;;;88.45;48.72;;;;;;;;;;4949009;29;20063;-86
2023/09/17 02:17:15;;;;;;;90.90;51.30;;;;;;;;;;4948259;29;20043;-88
2023/09/17 02:19:44;;;;;;;86.20;49.60;;;;;;;;;;4947732;29;20260;-88
2023/09/17 02:22:12;;;;;;;94.15;51.25;;;;;;;;;;4948021;29;20067;-87
2023/09/17 02:24:39;;;;;;;90.15;49.38;;;;;;;;;;4947957;29;20058;-87
2023/09/17 02:27:16;;;;;;;88.15;49.38;;;;;;;;;;4949386;29;20051;-86
2023/09/17 02:29:44;;;;;;;91.13;49.60;;;;;;;;;;4955546;29;20063;-87
2023/09/17 02:32:12;;;;;;;86.95;49.05;;;;;;;;;;4957551;28;20046;-89
2023/09/17 02:34:42;;;;;;;86.55;48.95;;;;;;;;;;4948204;29;20057;-87
2023/09/17 02:37:09;;;;;;;91.03;48.85;;;;;;;;;;4948466;29;20055;-87
2023/09/17 02:39:36;;;;;;;84.20;46.83;;;;;;;;;;4947830;29;20424;-88
2023/09/17 02:42:06;;;;;;;89.47;49.40;;;;;;;;;;4963500;29;20428;-87
2023/09/17 02:44:36;;;;;;;90.38;48.83;;;;;;;;;;4946056;29;20299;-88
2023/09/17 02:47:03;;;;;;;92.30;51.45;;;;;;;;;;4946941;29;20058;-88
2023/09/17 02:49:32;;;;;;;90.78;49.83;;;;;;;;;;4947146;29;20055;-88
2023/09/17 02:52:34;;;;;;;85.18;49.55;;;;;;;;;;5118661;27;20526;-87
2023/09/17 02:55:08;;;;;;;81.38;46.75;;;;;;;;;;5118928;28;20275;-88
2023/09/17 02:57:35;;;;;;;88.78;49.25;;;;;;;;;;5118395;28;20054;-88
2023/09/17 03:00:08;;;;;;;94.38;53.05;;;;;;;;;;5117840;28;20437;-88
2023/09/17 03:02:38;;;;;;;96.75;52.40;;;;;;;;;;5120538;28;20048;-88
2023/09/17 03:05:09;;;;;;;98.13;51.33;;;;;;;;;;5122645;28;20068;-88
2023/09/17 03:07:47;;;;;;;101.95;50.35;;;;;;;;;;5122014;27;20062;-88
2023/09/17 03:10:18;;;;;;;97.93;53.80;;;;;;;;;;5122233;28;20108;-88
2023/09/17 03:12:46;;;;;;;102.53;54.25;;;;;;;;;;5117590;28;20040;-87
2023/09/17 03:15:16;;;;;;;95.68;52.33;;;;;;;;;;5117759;28;20101;-87
2023/09/17 03:17:44;;;;;;;103.88;55.03;;;;;;;;;;5119918;28;20101;-87
2023/09/17 03:20:14;;;;;;;93.72;53.47;;;;;;;;;;5120495;28;20112;-88
2023/09/17 03:22:45;;;;;;;93.30;51.95;;;;;;;;;;5119108;28;20426;-88
2023/09/17 03:25:13;;;;;;;96.32;52.75;;;;;;;;;;5117966;28;20461;-87
2023/09/17 03:27:44;;;;;;;96.50;53.63;;;;;;;;;;5117965;28;20139;-87
2023/09/17 03:30:12;;;;;;;88.90;48.50;;;;;;;;;;5117733;28;20050;-88
2023/09/17 03:32:40;;;;;;;84.72;48.10;;;;;;;;;;5118542;28;20048;-88
2023/09/17 03:35:24;;;;;;;85.25;47.25;;;;;;;;;;5119639;28;20495;-87
2023/09/17 03:37:52;;;;;;;93.97;50.58;;;;;;;;;;5119778;28;20059;-87
2023/09/17 03:40:20;;;;;;;92.45;49.80;;;;;;;;;;5118538;28;20047;-87
2023/09/17 03:42:48;;;;;;;88.65;48.78;;;;;;;;;;5120104;28;20058;-89
2023/09/17 03:45:17;;;;;;;82.45;47.78;;;;;;;;;;5120369;28;20043;-88
2023/09/17 03:47:52;;;;;;;84.53;46.72;;;;;;;;;;5123017;28;20107;-88
2023/09/17 03:50:23;;;;;;;88.80;48.28;;;;;;;;;;5120066;28;20120;-89
2023/09/17 03:52:53;;;;;;;90.80;47.25;;;;;;;;;;5104009;28;20043;-88
2023/09/17 03:55:24;;;;;;;91.03;49.50;;;;;;;;;;5105721;27;20044;-88
2023/09/17 03:57:51;;;;;;;88.65;48.20;;;;;;;;;;5100967;28;20070;-87
2023/09/17 04:00:23;;;;;;;84.80;48.00;;;;;;;;;;5102845;28;20044;-87
2023/09/17 04:02:54;;;;;;;84.70;47.37;;;;;;;;;;5095031;28;20059;-87
2023/09/17 04:05:22;;;;;;;85.30;47.55;;;;;;;;;;5104577;28;20461;-88
2023/09/17 04:07:50;;;;;;;93.88;48.88;;;;;;;;;;5088705;28;20079;-88
2023/09/17 04:10:17;;;;;;;84.63;45.67;;;;;;;;;;5088022;28;20140;-88
2023/09/17 04:12:45;;;;;;;89.40;47.17;;;;;;;;;;5087985;28;20342;-87
2023/09/17 04:15:20;;;;;;;91.88;45.97;;;;;;;;;;5087362;28;20104;-87
2023/09/17 04:17:50;;;;;;;97.85;48.83;;;;;;;;;;5085560;28;20048;-87
2023/09/17 04:20:18;;;;;;;84.82;45.25;;;;;;;;;;5086095;28;20429;-87
2023/09/17 04:22:49;;;;;;;88.43;44.35;;;;;;;;;;5085636;28;20111;-87
2023/09/17 04:25:32;;;;;;;78.13;43.15;;;;;;;;;;5085746;28;20043;-87
2023/09/17 04:28:19;;;;;;;;;;;;;;;;;;5076502;28;20134;-87
2023/09/17 04:30:55;;;;;;;86.55;44.35;;;;;;;;;;5088677;28;19960;-86
2023/09/17 04:33:25;;;;;;;85.95;43.63;;;;;;;;;;5088734;28;20048;-87
2023/09/17 04:35:56;;;;;;;83.35;42.17;;;;;;;;;;5086661;28;20044;-86
2023/09/17 04:38:23;;;;;;;83.55;42.63;;;;;;;;;;5085804;28;20446;-87
2023/09/17 04:40:54;;;;;;;81.53;41.28;;;;;;;;;;5084989;28;20090;-87
2023/09/17 04:43:26;;;;;;;82.65;42.53;;;;;;;;;;5085500;28;20052;-87
2023/09/17 04:45:54;;;;;;;76.45;42.00;;;;;;;;;;5086168;28;20048;-87
2023/09/17 04:48:22;;;;;;;80.10;42.33;;;;;;;;;;5085591;28;20056;-88
2023/09/17 04:50:52;;;;;;;78.50;41.55;;;;;;;;;;5087569;28;20078;-87
2023/09/17 04:53:22;;;;;;;77.88;42.30;;;;;;;;;;5100709;28;20054;-87
2023/09/17 04:55:56;;;;;;;78.88;41.70;;;;;;;;;;5100943;28;20059;-87
2023/09/17 04:58:23;;;;;;;78.30;41.83;;;;;;;;;;5102718;28;20070;-87
2023/09/17 05:00:50;;;;;;;81.05;41.83;;;;;;;;;;5104696;28;20070;-87
2023/09/17 05:03:19;;;;;;;78.18;41.33;;;;;;;;;;5111279;28;20049;-87
2023/09/17 05:05:46;;;;;;;79.60;39.28;;;;;;;;;;5106935;28;20063;-87
2023/09/17 05:08:16;;;;;;;78.30;40.13;;;;;;;;;;5100871;28;20059;-87
2023/09/17 05:10:45;;;;;;;72.30;39.55;;;;;;;;;;5100680;28;20078;-88
2023/09/17 05:13:12;;;;;;;70.75;39.42;;;;;;;;;;5100695;28;20404;-87
2023/09/17 05:15:39;;;;;;;75.57;37.55;;;;;;;;;;5098390;28;20048;-87
2023/09/17 05:18:09;;;;;;;67.35;35.33;;;;;;;;;;5101648;28;20197;-87
2023/09/17 05:20:38;;;;;;;62.70;31.65;;;;;;;;;;5100344;28;20052;-87
2023/09/17 05:23:08;;;;;;;67.07;30.67;;;;;;;;;;5101356;28;20067;-88
2023/09/17 05:25:36;;;;;;;63.55;30.92;;;;;;;;;;5101087;28;20059;-88
2023/09/17 05:28:06;;;;;;;72.25;31.80;;;;;;;;;;5103631;28;20052;-88
2023/09/17 05:30:34;;;;;;;63.00;30.83;;;;;;;;;;5105800;28;20036;-87
2023/09/17 05:33:02;;;;;;;69.20;30.10;;;;;;;;;;5106613;28;20048;-87
2023/09/17 05:35:29;;;;;;;65.43;30.42;;;;;;;;;;5101383;28;20052;-88
2023/09/17 05:37:57;;;;;;;54.97;27.88;;;;;;;;;;5100420;28;20048;-87
2023/09/17 05:40:27;;;;;;;60.90;29.40;;;;;;;;;;5099563;28;20052;-87
2023/09/17 05:42:56;;;;;;;58.75;28.70;;;;;;;;;;5100882;28;20052;-87
2023/09/17 05:45:26;;;;;;;63.65;29.67;;;;;;;;;;5101954;28;20056;-88
2023/09/17 05:47:54;;;;;;;52.55;26.15;;;;;;;;;;5099719;28;20251;-87
2023/09/17 05:50:26;;;;;;;56.72;27.58;;;;;;;;;;5103446;28;20119;-87
2023/09/17 05:52:58;;;;;;;61.10;29.45;;;;;;;;;;5086007;28;20048;-87
2023/09/17 05:55:26;;;;;;;56.05;28.05;;;;;;;;;;5082041;28;20120;-87
2023/09/17 05:57:54;;;;;;;55.10;27.27;;;;;;;;;;5082039;28;20055;-87
2023/09/17 06:00:26;;;;;;;54.78;29.08;;;;;;;;;;5082036;28;20059;-86
2023/09/17 06:02:54;;;;;;;55.33;27.52;;;;;;;;;;5081786;28;20252;-86
2023/09/17 06:05:25;;;;;;;57.40;28.33;;;;;;;;;;5082360;28;20073;-87
2023/09/17 06:07:54;;;;;;;54.25;27.42;;;;;;;;;;5083476;28;20078;-87
2023/09/17 06:10:24;;;;;;;58.72;30.60;;;;;;;;;;5082748;28;20051;-87
2023/09/17 06:12:51;;;;;;;59.55;28.48;;;;;;;;;;5083027;28;20048;-87
2023/09/17 06:15:22;;;;;;;51.30;28.45;;;;;;;;;;5083407;28;20071;-87
2023/09/17 06:17:50;;;;;;;48.10;25.75;;;;;;;;;;5087934;28;20038;-88
2023/09/17 06:20:30;;;;;;;45.25;26.27;;;;;;;;;;5099431;28;20077;-88
2023/09/17 06:23:11;;;;;;;45.88;25.58;;;;;;;;;;5101161;28;20047;-88
2023/09/17 06:25:53;;;;;;;44.30;25.75;;;;;;;;;;5090917;28;20307;-86
2023/09/17 06:28:20;;;;;;;44.53;26.35;;;;;;;;;;5099794;28;20056;-87
2023/09/17 06:30:49;;;;;;;42.28;24.35;;;;;;;;;;5082878;28;20147;-87
2023/09/17 06:33:17;;;;;;;40.47;24.50;;;;;;;;;;5082401;28;20080;-87
2023/09/17 06:35:48;;;;;;;41.55;24.48;;;;;;;;;;5083287;28;20105;-87
2023/09/17 06:38:17;;;;;;;38.20;22.88;;;;;;;;;;5083193;28;20044;-87
2023/09/17 06:40:46;;;;;;;41.63;23.90;;;;;;;;;;5082789;28;20051;-87
2023/09/17 06:43:15;;;;;;;38.67;23.30;;;;;;;;;;5083290;28;20052;-87
2023/09/17 06:45:43;;;;;;;36.85;22.27;;;;;;;;;;5082831;28;20110;-88
2023/09/17 06:48:10;;;;;;;36.33;22.58;;;;;;;;;;5080325;28;20040;-87
2023/09/17 06:50:42;;;;;;;38.63;23.38;;;;;;;;;;5098066;28;20240;-87
2023/09/17 06:53:30;;;;;;;38.78;24.67;;;;;;;;;;5080954;28;20247;-87
2023/09/17 06:55:58;;;;;;;38.75;25.35;;;;;;;;;;5081489;28;20055;-87
2023/09/17 06:58:26;;;;;;;39.00;23.92;;;;;;;;;;5083493;28;20271;-87
2023/09/17 07:00:54;;;;;;;34.63;22.85;;;;;;;;;;5082244;28;20119;-86
2023/09/17 07:03:25;;;;;;;37.78;24.20;;;;;;;;;;5083160;28;20113;-87
2023/09/17 07:05:55;;;;;;;39.00;24.42;;;;;;;;;;5080641;28;20076;-87
2023/09/17 07:08:25;;;;;;;32.60;21.63;;;;;;;;;;5098639;28;20032;-88
2023/09/17 07:10:57;;;;;;;35.35;24.00;;;;;;;;;;5080134;28;20115;-88
2023/09/17 07:13:28;;;;;;;35.25;22.77;;;;;;;;;;5085333;28;20093;-88
2023/09/17 07:15:59;;;;;;;34.63;23.80;;;;;;;;;;5086917;28;20052;-88
2023/09/17 07:18:30;;;;;;;32.95;22.45;;;;;;;;;;5092216;28;20040;-88
2023/09/17 07:21:01;;;;;;;32.42;22.02;;;;;;;;;;5091632;28;20054;-88
2023/09/17 07:23:30;;;;;;;31.38;20.77;;;;;;;;;;5091768;28;20058;-88
2023/09/17 07:26:00;;;;;;;33.33;23.80;;;;;;;;;;5090817;28;20032;-88
2023/09/17 07:28:30;;;;;;;33.92;20.75;;;;;;;;;;5121022;27;20048;-87
2023/09/17 07:30:58;;;;;;;35.05;21.80;;;;;;;;;;5108446;28;20040;-88
2023/09/17 07:33:26;;;;;;;27.58;19.50;;;;;;;;;;5082682;28;20546;-87
2023/09/17 07:35:53;;;;;;;29.20;20.17;;;;;;;;;;5081210;28;20537;-87
2023/09/17 07:38:26;;;;;;;27.35;19.10;;;;;;;;;;5085766;28;20082;-88
2023/09/17 07:41:02;;;;;;;29.58;18.60;;;;;;;;;;5088679;28;20090;-87
2023/09/17 07:43:31;;;;;;;30.77;19.95;;;;;;;;;;5090725;28;20048;-87
2023/09/17 07:45:59;;;;;;;27.20;18.88;;;;;;;;;;5086749;28;20058;-87
2023/09/17 07:48:29;;;;;;;22.95;17.63;;;;;;;;;;5102862;28;20051;-88
2023/09/17 07:51:08;;;;;;;26.75;18.02;;;;;;;;;;5087334;28;20429;-87
2023/09/17 07:53:40;;;;;;;27.38;18.38;;;;;;;;;;5104619;28;20052;-87
2023/09/17 07:56:07;;;;;;;27.30;19.38;;;;;;;;;;5102893;28;20044;-88
2023/09/17 07:58:36;;;;;;;25.08;16.65;;;;;;;;;;5100173;28;20114;-87
2023/09/17 08:01:11;;;;;;;23.95;17.15;;;;;;;;;;5100742;28;20048;-88
2023/09/17 08:03:39;;;;;;;22.80;16.55;;;;;;;;;;5101740;28;20054;-87
2023/09/17 08:06:12;;;;;;;24.17;17.05;;;;;;;;;;5098514;28;20062;-87
2023/09/17 08:08:42;;;;;;;20.73;14.60;;;;;;;;;;5099137;28;20062;-87
2023/09/17 08:11:36;;;;;;;19.90;14.20;;;;;;;;;;5100105;28;20258;-87
2023/09/17 08:14:06;;;;;;;20.73;14.32;;;;;;;;;;5100124;28;20113;-87
2023/09/17 08:16:35;;;;;;;20.77;14.30;;;;;;;;;;5096429;28;20048;-87
2023/09/17 08:19:17;;;;;;;18.35;13.55;;;;;;;;;;5096163;28;20322;-87
2023/09/17 08:21:45;;;;;;;19.95;15.30;;;;;;;;;;5096717;28;20349;-87
2023/09/17 08:24:14;;;;;;;19.25;15.02;;;;;;;;;;5093948;28;20063;-87
2023/09/17 08:26:47;;;;;;;19.35;12.57;;;;;;;;;;5093910;28;20170;-89
2023/09/17 08:29:17;;;;;;;17.63;12.85;;;;;;;;;;5096794;28;20059;-88
2023/09/17 08:31:53;;;;;;;20.23;14.23;;;;;;;;;;5095972;28;20043;-87
2023/09/17 08:34:34;;;;;;;20.20;13.50;;;;;;;;;;5098529;28;20058;-88
2023/09/17 08:37:04;;;;;;;16.80;12.18;;;;;;;;;;5099123;28;20051;-87
2023/09/17 08:39:31;;;;;;;18.80;14.00;;;;;;;;;;5097337;28;20128;-87
2023/09/17 08:42:07;;;;;;;19.88;12.80;;;;;;;;;;5097072;28;20052;-87
2023/09/17 08:44:38;;;;;;;20.55;12.70;;;;;;;;;;5098144;28;20354;-88
2023/09/17 08:47:05;;;;;;;16.92;11.32;;;;;;;;;;5095524;28;20058;-88
2023/09/17 08:49:33;;;;;;;17.98;12.40;;;;;;;;;;5092824;28;20194;-86
2023/09/17 08:52:04;;;;;;;16.25;11.75;;;;;;;;;;5093147;28;20311;-87
2023/09/17 08:54:38;;;;;;;15.73;10.43;;;;;;;;;;5092522;28;20183;-87
2023/09/17 08:57:06;;;;;;;13.10;9.30;;;;;;;;;;5092874;28;20090;-87
2023/09/17 08:59:41;;;;;;;14.40;11.00;;;;;;;;;;5092426;28;20051;-87
2023/09/17 09:02:18;;;;;;;13.60;10.02;;;;;;;;;;5095767;28;20063;-88
2023/09/17 09:04:54;;;;;;;13.75;9.23;;;;;;;;;;5090298;28;20066;-87
2023/09/17 09:07:25;;;;;;;11.95;9.27;;;;;;;;;;5089478;28;20240;-87
2023/09/17 09:09:54;;;;;;;11.95;7.82;;;;;;;;;;5090442;28;20235;-87
2023/09/17 09:12:21;;;;;;;13.55;8.48;;;;;;;;;;5089503;28;20056;-87
2023/09/17 09:14:53;;;;;;;11.77;8.70;;;;;;;;;;5090564;28;20040;-86
2023/09/17 09:17:25;;;;;;;12.02;8.30;;;;;;;;;;5089845;28;20518;-87
2023/09/17 09:19:55;;;;;;;12.52;7.53;;;;;;;;;;5091325;28;20540;-87
2023/09/17 09:22:26;;;;;;;13.05;7.45;;;;;;;;;;5089024;28;20063;-87
2023/09/17 09:24:53;;;;;;;9.95;6.50;;;;;;;;;;5090942;28;20067;-85
2023/09/17 09:27:26;;;;;;;8.60;6.82;;;;;;;;;;5091895;28;20048;-86
2023/09/17 09:29:55;;;;;;;9.52;6.13;;;;;;;;;;5089755;28;20040;-86
2023/09/17 09:32:23;;;;;;;13.38;7.45;;;;;;;;;;5090529;28;20047;-86
2023/09/17 09:34:57;;;;;;;10.23;7.15;;;;;;;;;;5092743;28;20267;-87
2023/09/17 09:37:24;;;;;;;9.20;7.10;;;;;;;;;;5090464;28;20040;-86
2023/09/17 09:39:52;;;;;;;10.85;6.13;;;;;;;;;;5090223;28;20113;-86
2023/09/17 09:42:26;;;;;;;8.43;5.75;;;;;;;;;;5088282;28;20074;-86
2023/09/17 09:44:57;;;;;;;9.45;6.35;;;;;;;;;;5088006;28;20310;-86
2023/09/17 09:47:27;;;;;;;7.32;6.18;;;;;;;;;;5087107;28;20052;-87
2023/09/17 09:50:00;;;;;;;8.68;5.78;;;;;;;;;;5088604;28;20160;-86
2023/09/17 09:52:30;;;;;;;7.15;5.13;;;;;;;;;;5088098;28;20070;-85
2023/09/17 09:54:58;;;;;;;8.70;5.22;;;;;;;;;;5094026;28;20052;-87
2023/09/17 09:57:26;;;;;;;7.07;5.07;;;;;;;;;;5101201;28;20044;-86
2023/09/17 09:59:53;;;;;;;8.60;4.18;;;;;;;;;;5092666;28;20032;-87
2023/09/17 10:02:25;;;;;;;7.85;4.90;;;;;;;;;;5095293;28;20142;-88
2023/09/17 10:05:00;;;;;;;6.68;4.60;;;;;;;;;;5092180;28;20125;-87
2023/09/17 10:07:30;;;;;;;6.47;4.28;;;;;;;;;;5095390;28;20130;-87
2023/09/17 10:09:58;;;;;;;5.85;4.70;;;;;;;;;;5093141;28;20048;-88
2023/09/17 10:12:30;;;;;;;5.85;4.30;;;;;;;;;;5093262;28;20059;-86
2023/09/17 10:14:58;;;;;;;5.25;4.13;;;;;;;;;;5092745;28;20044;-87
2023/09/17 10:17:25;;;;;;;8.15;3.88;;;;;;;;;;5093106;28;20473;-87
2023/09/17 10:19:54;;;;;;;4.70;3.65;;;;;;;;;;5097712;28;20094;-87
2023/09/17 10:22:24;;;;;;;5.55;3.65;;;;;;;;;;5093129;28;20059;-87
2023/09/17 10:24:55;;;;;;;10.27;3.85;;;;;;;;;;5090529;28;20382;-87
2023/09/17 10:27:26;;;;;;;5.18;3.60;;;;;;;;;;5090842;28;20048;-87
2023/09/17 10:30:07;;;;;;;10.48;4.35;;;;;;;;;;5089836;28;20060;-86
2023/09/17 10:32:36;;;;;;;12.00;4.00;;;;;;;;;;5091726;28;20141;-87
2023/09/17 10:35:05;;;;;;;5.70;4.03;;;;;;;;;;5088972;28;20044;-87
2023/09/17 10:37:35;;;;;;;5.40;4.10;;;;;;;;;;5087645;28;20287;-87
2023/09/17 10:40:08;;;;;;;5.90;3.58;;;;;;;;;;5088602;28;20048;-87
2023/09/17 10:42:39;;;;;;;5.68;3.50;;;;;;;;;;5086033;28;20075;-87
2023/09/17 10:45:07;;;;;;;4.20;3.30;;;;;;;;;;5087693;28;20048;-87
2023/09/17 10:47:38;;;;;;;7.05;3.80;;;;;;;;;;5089558;28;20044;-87
2023/09/17 10:50:08;;;;;;;5.28;3.83;;;;;;;;;;5090545;28;20215;-87
2023/09/17 10:52:36;;;;;;;4.68;3.42;;;;;;;;;;5087725;28;20111;-87
2023/09/17 10:55:17;;;;;;;6.65;3.72;;;;;;;;;;5090522;28;20044;-88
2023/09/17 10:57:48;;;;;;;5.85;3.40;;;;;;;;;;5088210;28;20119;-87
2023/09/17 11:00:22;;;;;;;5.47;3.25;;;;;;;;;;5102997;28;20062;-87
2023/09/17 11:03:14;;;;;;;4.95;3.53;;;;;;;;;;5110982;28;20116;-87
2023/09/17 11:05:59;;;;;;;4.22;3.05;;;;;;;;;;5107697;28;20040;-88
2023/09/17 11:08:55;;;;;;;6.88;3.42;;;;;;;;;;5102532;28;20048;-86
2023/09/17 11:11:41;;;;;;;6.53;3.17;;;;;;;;;;5103675;28;20032;-88
2023/09/17 11:14:34;;;;;;;6.95;3.30;;;;;;;;;;5107902;28;20056;-87
2023/09/17 11:17:53;;;;;;;4.28;3.30;;;;;;;;;;5109716;28;20048;-87
2023/09/17 11:20:38;;;;;;;3.83;2.75;;;;;;;;;;5106191;28;20039;-87
2023/09/17 11:23:39;;;;;;;6.22;3.65;;;;;;;;;;5108839;28;20052;-87
2023/09/17 11:26:20;;;;;;;4.30;3.58;;;;;;;;;;5106893;28;20105;-89
2023/09/17 11:29:07;;;;;;;9.43;3.45;;;;;;;;;;5108977;28;20108;-88
2023/09/17 11:31:50;;;;;;;3.33;2.85;;;;;;;;;;5103410;28;20434;-87
2023/09/17 11:34:34;;;;;;;7.63;3.30;;;;;;;;;;5105474;28;20114;-87
2023/09/17 11:37:40;;;;;;;4.78;3.50;;;;;;;;;;5106827;28;20044;-86
2023/09/17 11:40:15;;;;;;;5.85;4.05;;;;;;;;;;5107184;28;20048;-88
2023/09/17 11:42:48;;;;;;;10.07;4.90;;;;;;;;;;5106244;28;20315;-87
2023/09/17 11:45:20;;;;;;;6.97;5.05;;;;;;;;;;5105994;28;20052;-88
2023/09/17 11:47:55;;;;;;;6.28;4.80;;;;;;;;;;5106404;28;20254;-86
2023/09/17 11:50:26;;;;;;;7.38;4.72;;;;;;;;;;5104482;28;20178;-86
2023/09/17 11:53:07;;;;;;;7.57;5.25;;;;;;;;;;5087574;28;20040;-87
2023/09/17 11:55:51;;;;;;;10.60;5.82;;;;;;;;;;5088982;28;20234;-86
2023/09/17 11:58:19;;;;;;;7.47;5.63;;;;;;;;;;5088026;28;20107;-87
2023/09/17 12:00:54;;;;;;;8.20;5.97;;;;;;;;;;5104204;28;20229;-85
2023/09/17 12:03:29;;;;;;;8.52;5.70;;;;;;;;;;5088342;28;20048;-88
2023/09/17 12:06:04;;;;;;;6.80;5.70;;;;;;;;;;5106839;28;20087;-86
2023/09/17 12:08:46;;;;;;;6.57;4.72;;;;;;;;;;5089632;28;20473;-86
2023/09/17 12:11:22;;;;;;;7.28;4.95;;;;;;;;;;5090344;28;20078;-86
2023/09/17 12:13:57;;;;;;;8.48;5.05;;;;;;;;;;5096616;28;20056;-87
2023/09/17 12:16:30;;;;;;;7.57;5.32;;;;;;;;;;5091011;28;20047;-86
2023/09/17 12:19:02;;;;;;;9.40;5.25;;;;;;;;;;5091276;28;20048;-86
2023/09/17 12:21:52;;;;;;;8.30;5.13;;;;;;;;;;5090627;28;20105;-86
2023/09/17 12:34:12;;;;;;;8.02;4.55;;;;;;;;;;5108166;28;20040;-87
2023/09/17 12:36:43;;;;;;;8.85;4.85;;;;;;;;;;5089146;28;20044;-86
2023/09/17 12:39:23;;;;;;;8.75;4.60;;;;;;;;;;5107216;28;20044;-86
2023/09/17 12:41:58;;;;;;;4.63;3.63;;;;;;;;;;5089768;28;20139;-87
2023/09/17 12:44:32;;;;;;;7.22;4.22;;;;;;;;;;5089227;28;20079;-87
2023/09/17 12:47:04;;;;;;;5.05;3.78;;;;;;;;;;5089660;28;20105;-87
2023/09/17 12:49:40;;;;;;;5.20;3.78;;;;;;;;;;5090728;28;20194;-87
2023/09/17 12:52:19;;;;;;;3.85;3.40;;;;;;;;;;5101832;28;20336;-87
2023/09/17 12:54:48;;;;;;;5.75;3.72;;;;;;;;;;5104537;28;20197;-87
2023/09/17 12:57:34;;;;;;;5.70;3.15;;;;;;;;;;5107721;28;20040;-87
2023/09/17 13:00:11;;;;;;;6.88;3.53;;;;;;;;;;5104052;28;20040;-85
2023/09/17 13:02:55;;;;;;;5.80;3.63;;;;;;;;;;5099356;28;20079;-85
2023/09/17 13:05:24;;;;;;;6.32;3.40;;;;;;;;;;5103635;28;20075;-86
2023/09/17 13:08:08;;;;;;;3.88;3.35;;;;;;;;;;5102229;28;20048;-87
2023/09/17 13:11:02;;;;;;;5.15;3.95;;;;;;;;;;5106271;28;20107;-86
2023/09/17 13:13:39;;;;;;;4.07;3.45;;;;;;;;;;5107927;28;20044;-87
2023/09/17 13:16:23;;;;;;;3.60;3.30;;;;;;;;;;5111355;28;20051;-86
2023/09/17 13:18:56;;;;;;;4.57;3.47;;;;;;;;;;5110959;28;20032;-86
2023/09/17 13:21:35;;;;;;;5.22;3.30;;;;;;;;;;5110554;28;20035;-87
2023/09/17 13:24:12;;;;;;;4.95;3.22;;;;;;;;;;5108121;28;20071;-87
2023/09/17 13:26:43;;;;;;;7.95;2.88;;;;;;;;;;5106410;28;20048;-87
2023/09/17 13:29:33;;;;;;;4.30;2.97;;;;;;;;;;5104161;28;20067;-87
2023/09/17 13:32:13;;;;;;;7.00;3.28;;;;;;;;;;5104676;28;20091;-86
2023/09/17 13:34:45;;;;;;;4.97;2.83;;;;;;;;;;5102738;28;20150;-86
2023/09/17 13:37:20;;;;;;;4.22;3.35;;;;;;;;;;5100916;28;20067;-87
2023/09/17 13:40:07;;;;;;;4.68;3.08;;;;;;;;;;5099912;28;20268;-88
2023/09/17 13:42:40;;;;;;;4.78;3.47;;;;;;;;;;5101627;28;20060;-86
2023/09/17 13:45:13;;;;;;;4.55;3.35;;;;;;;;;;5103772;28;20047;-87
2023/09/17 13:47:41;;;;;;;4.82;3.28;;;;;;;;;;5102212;28;20048;-87
2023/09/17 13:50:32;;;;;;;3.92;3.20;;;;;;;;;;5101969;28;20032;-87
2023/09/17 13:53:06;;;;;;;4.30;2.90;;;;;;;;;;5103073;28;20664;-87
2023/09/17 13:55:38;;;;;;;5.50;2.90;;;;;;;;;;5100779;28;20443;-87
2023/09/17 13:58:20;;;;;;;4.43;3.58;;;;;;;;;;5099842;28;20048;-87
2023/09/17 14:00:49;;;;;;;5.65;2.95;;;;;;;;;;5101184;28;20306;-87
2023/09/17 14:03:21;;;;;;;4.90;3.22;;;;;;;;;;5102570;28;20075;-88
2023/09/17 14:05:49;;;;;;;5.53;3.00;;;;;;;;;;5103496;28;20055;-87
2023/09/17 14:08:34;;;;;;;4.13;3.15;;;;;;;;;;5103940;28;20076;-87
2023/09/17 14:11:03;;;;;;;3.95;3.55;;;;;;;;;;5101388;28;20060;-88
2023/09/17 14:13:41;;;;;;;3.70;3.15;;;;;;;;;;5149478;22;20046;-87
2023/09/17 14:16:13;;;;;;;7.45;3.65;;;;;;;;;;5099241;28;20072;-87
2023/09/17 14:18:54;;;;;;;5.05;3.35;;;;;;;;;;5066792;28;20230;-87
2023/09/17 14:21:28;;;;;;;3.75;3.05;;;;;;;;;;5066596;28;20399;-86
2023/09/17 14:24:14;;;;;;;4.95;3.63;;;;;;;;;;5067890;28;20083;-87
2023/09/17 14:26:55;;;;;;;;;;;;;;;;;;5066877;28;20537;-87
2023/09/17 14:29:28;;;;;;;3.65;3.17;;;;;;;;;;5067939;28;19920;-88
2023/09/17 14:32:01;;;;;;;7.22;3.38;;;;;;;;;;5071635;28;20052;-88
2023/09/17 14:34:43;;;;;;;5.88;4.10;;;;;;;;;;5068214;28;20075;-87
2023/09/17 14:37:27;;;;;;;4.82;3.55;;;;;;;;;;5065550;28;20063;-87
2023/09/17 14:43:32;;;;;;;5.45;3.70;;;;;;;;;;5084150;28;20058;-86
2023/09/17 14:46:00;;;;;;;7.55;4.20;;;;;;;;;;5049409;28;20406;-86
2023/09/17 14:48:28;;;;;;;5.00;3.60;;;;;;;;;;5049346;28;20044;-87
2023/09/17 14:50:57;;;;;;;6.93;3.85;;;;;;;;;;5050035;28;20086;-87
2023/09/17 14:53:25;;;;;;;4.22;3.78;;;;;;;;;;5052632;28;20252;-87
2023/09/17 14:55:53;;;;;;;7.65;4.20;;;;;;;;;;5052565;28;20056;-87
2023/09/17 14:58:20;;;;;;;6.50;3.92;;;;;;;;;;5069637;28;20204;-86
2023/09/17 15:00:52;;;;;;;4.95;4.03;;;;;;;;;;5051595;28;20538;-87
2023/09/17 15:03:25;;;;;;;5.15;4.45;;;;;;;;;;5053799;28;20098;-87
2023/09/17 15:06:01;;;;;;;4.15;3.72;;;;;;;;;;5051804;28;20249;-87
2023/09/17 15:08:31;;;;;;;5.75;4.15;;;;;;;;;;5053411;28;20268;-87
2023/09/17 15:10:58;;;;;;;9.75;3.80;;;;;;;;;;5055097;28;20044;-87